Historique des mesures à Cassis (13260), France
Quotidien Résumé Juin 13, 2021 Unités:  Métrique/US    US   Métrique
Quotidien Hebdomadaire Mensuel Annuel
  Maximum: Minimum: Moyenne:
Température: 69.1 °F /  20.6 °C 56.1 °F /  13.4 °C 61.5 °F /  16.4 °C
Point de rosée: 48 °F /  8.9 °C 41.5 °F /  5.3 °C 44.2 °F /  6.8 °C
Humidité: 59% 46% 54%
Vitesse du vent: 15mph /  24.1km/h - 8.1mph /  13km/h
Rafales: 18.3mph /  29.5km/h - -
Vent- - WNW
Pression: 30 in /  1016.8 hPa 29.9 in /  1010.8 hPa -
Précipitations: 0 in /  0.0 mm    
Historical Graphs
 
 
Mesures pour : Juin 13, 2021
Heure Temperature Point de rosée Pression Vent Vitesse du vent Rafales Humidité Pluie (par heure)
00:11 59.2 °F /  15.1 °C 43 °F /  6.1 °C 29.9in /  1010.8hPa WNW 15mph /  24.1km/h 15.4mph /  24.8km/h 55% 0in /  0.0mm
01:11 59.2 °F /  15.1 °C 42.4 °F /  5.8 °C 29.9in /  1010.8hPa West 5.3mph /  8.6km/h 16.8mph /  27km/h 54% 0in /  0.0mm
02:12 58.6 °F /  14.8 °C 42.1 °F /  5.6 °C 29.9in /  1010.9hPa WNW 9.2mph /  14.8km/h 18.3mph /  29.5km/h 54% 0in /  0.0mm
03:11 58.3 °F /  14.6 °C 42.1 °F /  5.6 °C 29.9in /  1010.9hPa WNW 5.8mph /  9.4km/h 15.9mph /  25.6km/h 55% 0in /  0.0mm
04:11 57.4 °F /  14.1 °C 41.9 °F /  5.5 °C 29.9in /  1011.2hPa WNW 7mph /  11.2km/h 9.6mph /  15.5km/h 56% 0in /  0.0mm
05:11 56.7 °F /  13.7 °C 41.5 °F /  5.3 °C 29.9in /  1011.6hPa West 6.3mph /  10.1km/h 11.4mph /  18.4km/h 57% 0in /  0.0mm
06:11 56.7 °F /  13.7 °C 42.1 °F /  5.6 °C 29.9in /  1011.9hPa WNW 8.9mph /  14.4km/h 12.6mph /  20.2km/h 58% 0in /  0.0mm
07:11 56.1 °F /  13.4 °C 41.5 °F /  5.3 °C 29.9in /  1012.0hPa NW 7.1mph /  11.5km/h 12.1mph /  19.4km/h 58% 0in /  0.0mm
08:11 56.1 °F /  13.4 °C 41.9 °F /  5.5 °C 29.9in /  1012.7hPa NW 9.4mph /  15.1km/h 11.9mph /  19.1km/h 59% 0in /  0.0mm
09:11 57.6 °F /  14.2 °C 43 °F /  6.1 °C 29.9in /  1013.2hPa WNW 8.5mph /  13.7km/h 8.3mph /  13.3km/h 58% 0in /  0.0mm
10:11 59.4 °F /  15.2 °C 43.7 °F /  6.5 °C 29.9in /  1013.7hPa NW 6.7mph /  10.8km/h 10.9mph /  17.6km/h 56% 0in /  0.0mm
11:11 62.6 °F /  17 °C 45.1 °F /  7.3 °C 29.9in /  1013.5hPa NNW 7.8mph /  12.6km/h 14.3mph /  23km/h 53% 0in /  0.0mm
12:11 65.3 °F /  18.5 °C 45.7 °F /  7.6 °C 29.9in /  1013.9hPa North 5.2mph /  8.3km/h 11.6mph /  18.7km/h 49% 0in /  0.0mm
13:11 67.1 °F /  19.5 °C 46.8 °F /  8.2 °C 29.9in /  1013.7hPa WNW 8.1mph /  13km/h 15.2mph /  24.5km/h 48% 0in /  0.0mm
14:11 68.4 °F /  20.2 °C 47.3 °F /  8.5 °C 29.9in /  1013.2hPa WNW 8.3mph /  13.3km/h 15.9mph /  25.6km/h 47% 0in /  0.0mm
15:11 68.7 °F /  20.4 °C 46.9 °F /  8.3 °C 29.9in /  1012.8hPa NW 8.3mph /  13.3km/h 10.5mph /  16.9km/h 46% 0in /  0.0mm
16:11 69.1 °F /  20.6 °C 47.3 °F /  8.5 °C 29.9in /  1012.5hPa WNW 4.7mph /  7.6km/h 11.4mph /  18.4km/h 46% 0in /  0.0mm
17:11 68.5 °F /  20.3 °C 48 °F /  8.9 °C 29.9in /  1013.0hPa West 8.1mph /  13km/h 17.5mph /  28.1km/h 48% 0in /  0.0mm
18:11 66.4 °F /  19.1 °C 46.8 °F /  8.2 °C 29.9in /  1013.0hPa West 14.1mph /  22.7km/h 16.8mph /  27km/h 49% 0in /  0.0mm
19:11 63.7 °F /  17.6 °C 45.7 °F /  7.6 °C 29.9in /  1013.7hPa NW 10.7mph /  17.3km/h 13.4mph /  21.6km/h 52% 0in /  0.0mm
20:11 61.3 °F /  16.3 °C 45 °F /  7.2 °C 30in /  1014.7hPa WNW 10.1mph /  16.2km/h 17.2mph /  27.7km/h 55% 0in /  0.0mm
21:11 60.1 °F /  15.6 °C 44.8 °F /  7.1 °C 30in /  1015.3hPa WNW 3.6mph /  5.8km/h 8.9mph /  14.4km/h 57% 0in /  0.0mm
22:11 59.7 °F /  15.4 °C 44.4 °F /  6.9 °C 30in /  1016.1hPa NNW 8.5mph /  13.7km/h 8.9mph /  14.4km/h 57% 0in /  0.0mm
23:11 59 °F /  15 °C 44.2 °F /  6.8 °C 30in /  1016.8hPa NW 7.4mph /  11.9km/h 9.2mph /  14.8km/h 58% 0in /  0.0mm
Observations météo à CASSIS
WU-History script by Weather Underground - 2 mb